sensor_id;sensor_type;location;lat;lon;timestamp;pressure;altitude;pressure_sealevel;temperature;humidity
56719;BME280;42597;40.636;0.278;2022-10-26T00:00:23;97419.25;;;21.11;79.49
56719;BME280;42597;40.636;0.278;2022-10-26T00:02:48;97417.94;;;21.23;79.04
56719;BME280;42597;40.636;0.278;2022-10-26T00:05:14;97427.91;;;21.09;79.49
56719;BME280;42597;40.636;0.278;2022-10-26T00:07:40;97422.78;;;21.11;79.70
56719;BME280;42597;40.636;0.278;2022-10-26T00:10:06;97435.69;;;21.14;79.25
56719;BME280;42597;40.636;0.278;2022-10-26T00:12:31;97424.69;;;21.14;79.14
56719;BME280;42597;40.636;0.278;2022-10-26T00:14:57;97414.59;;;21.04;79.60
56719;BME280;42597;40.636;0.278;2022-10-26T00:17:23;97416.56;;;21.07;79.47
56719;BME280;42597;40.636;0.278;2022-10-26T00:19:48;97414.53;;;21.11;79.18
56719;BME280;42597;40.636;0.278;2022-10-26T00:22:14;97409.47;;;21.06;79.27
56719;BME280;42597;40.636;0.278;2022-10-26T00:24:40;97406.78;;;21.03;77.02
56719;BME280;42597;40.636;0.278;2022-10-26T00:27:06;97401.81;;;20.90;78.97
56719;BME280;42597;40.636;0.278;2022-10-26T00:29:31;97400.97;;;20.52;79.62
56719;BME280;42597;40.636;0.278;2022-10-26T00:31:57;97399.84;;;20.91;79.73
56719;BME280;42597;40.636;0.278;2022-10-26T00:34:23;97385.16;;;21.05;79.35
56719;BME280;42597;40.636;0.278;2022-10-26T00:36:48;97392.56;;;21.11;79.01
56719;BME280;42597;40.636;0.278;2022-10-26T00:39:14;97391.38;;;21.12;78.27
56719;BME280;42597;40.636;0.278;2022-10-26T00:41:40;97396.94;;;21.05;78.92
56719;BME280;42597;40.636;0.278;2022-10-26T00:49:42;97391.44;;;21.05;78.98
56719;BME280;42597;40.636;0.278;2022-10-26T00:52:13;97393.38;;;21.08;78.86
56719;BME280;42597;40.636;0.278;2022-10-26T00:54:39;97390.25;;;21.06;78.83
56719;BME280;42597;40.636;0.278;2022-10-26T00:57:05;97398.91;;;21.05;78.79
56719;BME280;42597;40.636;0.278;2022-10-26T00:59:31;97398.88;;;21.08;78.63
56719;BME280;42597;40.636;0.278;2022-10-26T01:01:57;97397.31;;;21.07;78.50
56719;BME280;42597;40.636;0.278;2022-10-26T01:04:23;97391.81;;;21.07;78.52
56719;BME280;42597;40.636;0.278;2022-10-26T01:06:48;97405.56;;;21.07;78.41
56719;BME280;42597;40.636;0.278;2022-10-26T01:09:14;97401.22;;;21.06;78.34
56719;BME280;42597;40.636;0.278;2022-10-26T01:11:41;97407.88;;;21.09;78.26
56719;BME280;42597;40.636;0.278;2022-10-26T01:14:09;97412.22;;;21.06;78.33
56719;BME280;42597;40.636;0.278;2022-10-26T01:17:10;97403.63;;;21.04;78.20
56719;BME280;42597;40.636;0.278;2022-10-26T01:22:38;97398.66;;;20.92;75.07
56719;BME280;42597;40.636;0.278;2022-10-26T01:28:00;97404.78;;;21.07;77.86
56719;BME280;42597;40.636;0.278;2022-10-26T01:30:53;97408.31;;;21.07;77.90
56719;BME280;42597;40.636;0.278;2022-10-26T01:38:37;97406.84;;;20.95;77.95
56719;BME280;42597;40.636;0.278;2022-10-26T01:44:39;97392.25;;;21.02;77.84
56719;BME280;42597;40.636;0.278;2022-10-26T01:47:08;97391.09;;;21.03;77.68
56719;BME280;42597;40.636;0.278;2022-10-26T01:49:40;97395.00;;;21.02;77.70
56719;BME280;42597;40.636;0.278;2022-10-26T01:52:08;97386.34;;;21.04;77.54
56719;BME280;42597;40.636;0.278;2022-10-26T01:54:35;97390.34;;;20.99;77.58
56719;BME280;42597;40.636;0.278;2022-10-26T01:57:03;97386.75;;;21.02;77.62
56719;BME280;42597;40.636;0.278;2022-10-26T02:07:55;97393.44;;;21.01;77.47
56719;BME280;42597;40.636;0.278;2022-10-26T02:13:03;97391.88;;;21.00;77.39
56719;BME280;42597;40.636;0.278;2022-10-26T02:15:39;97395.06;;;20.99;77.37
56719;BME280;42597;40.636;0.278;2022-10-26T02:21:06;97391.97;;;20.93;77.39
56719;BME280;42597;40.636;0.278;2022-10-26T02:23:36;97395.00;;;21.02;77.13
56719;BME280;42597;40.636;0.278;2022-10-26T02:26:06;97386.41;;;21.00;76.91
56719;BME280;42597;40.636;0.278;2022-10-26T02:28:35;97386.41;;;21.00;77.16
56719;BME280;42597;40.636;0.278;2022-10-26T02:31:03;97388.38;;;21.00;77.06
56719;BME280;42597;40.636;0.278;2022-10-26T02:33:33;97379.75;;;20.98;76.81
56719;BME280;42597;40.636;0.278;2022-10-26T02:36:04;97388.41;;;20.96;76.81
56719;BME280;42597;40.636;0.278;2022-10-26T02:38:32;97390.69;;;20.63;70.57
56719;BME280;42597;40.636;0.278;2022-10-26T02:41:00;97382.00;;;20.68;78.01
56719;BME280;42597;40.636;0.278;2022-10-26T02:43:28;97385.69;;;20.92;77.11
56719;BME280;42597;40.636;0.278;2022-10-26T02:46:15;97380.16;;;20.96;76.71
56719;BME280;42597;40.636;0.278;2022-10-26T02:48:43;97381.72;;;20.97;76.58
56719;BME280;42597;40.636;0.278;2022-10-26T02:51:31;97389.59;;;20.95;76.90
56719;BME280;42597;40.636;0.278;2022-10-26T02:54:16;97391.94;;;20.97;76.56
56719;BME280;42597;40.636;0.278;2022-10-26T02:57:16;97392.72;;;20.93;76.69
56719;BME280;42597;40.636;0.278;2022-10-26T02:59:43;97393.97;;;20.89;72.14
56719;BME280;42597;40.636;0.278;2022-10-26T03:02:13;97381.78;;;20.90;76.74
56719;BME280;42597;40.636;0.278;2022-10-26T03:04:40;97388.06;;;20.90;76.58
56719;BME280;42597;40.636;0.278;2022-10-26T03:07:06;97378.59;;;20.95;76.63
56719;BME280;42597;40.636;0.278;2022-10-26T03:09:31;97378.59;;;20.95;76.37
56719;BME280;42597;40.636;0.278;2022-10-26T03:11:57;97386.84;;;20.95;76.38
56719;BME280;42597;40.636;0.278;2022-10-26T03:14:23;97386.47;;;20.93;76.58
56719;BME280;42597;40.636;0.278;2022-10-26T03:16:49;97377.84;;;20.94;76.68
56719;BME280;42597;40.636;0.278;2022-10-26T03:19:14;97386.47;;;20.93;76.31
56719;BME280;42597;40.636;0.278;2022-10-26T03:21:40;97380.19;;;20.92;76.20
56719;BME280;42597;40.636;0.278;2022-10-26T03:24:07;97389.22;;;20.93;76.26
56719;BME280;42597;40.636;0.278;2022-10-26T03:26:33;97387.00;;;20.29;71.50
56719;BME280;42597;40.636;0.278;2022-10-26T03:28:59;97395.25;;;20.77;77.15
56719;BME280;42597;40.636;0.278;2022-10-26T03:31:24;97386.50;;;20.89;76.35
56719;BME280;42597;40.636;0.278;2022-10-26T03:33:50;97383.19;;;20.67;77.69
56719;BME280;42597;40.636;0.278;2022-10-26T03:36:16;97382.63;;;20.87;76.71
56719;BME280;42597;40.636;0.278;2022-10-26T03:38:41;97387.28;;;20.90;76.29
56719;BME280;42597;40.636;0.278;2022-10-26T03:41:07;97382.16;;;20.92;76.26
56719;BME280;42597;40.636;0.278;2022-10-26T03:43:33;97390.41;;;20.92;76.18
56719;BME280;42597;40.636;0.278;2022-10-26T03:45:58;97392.69;;;20.97;76.05
56719;BME280;42597;40.636;0.278;2022-10-26T03:48:24;97394.34;;;20.91;76.18
56719;BME280;42597;40.636;0.278;2022-10-26T03:50:50;97388.84;;;20.91;76.08
56719;BME280;42597;40.636;0.278;2022-10-26T03:53:15;97387.66;;;20.92;76.19
56719;BME280;42597;40.636;0.278;2022-10-26T03:55:43;97388.44;;;20.92;76.06
56719;BME280;42597;40.636;0.278;2022-10-26T03:58:09;97381.81;;;20.86;76.03
56719;BME280;42597;40.636;0.278;2022-10-26T04:00:34;97379.41;;;20.92;75.97
56719;BME280;42597;40.636;0.278;2022-10-26T04:03:00;97388.06;;;20.90;76.04
56719;BME280;42597;40.636;0.278;2022-10-26T04:05:27;97390.81;;;20.90;75.95
56719;BME280;42597;40.636;0.278;2022-10-26T04:07:58;97399.84;;;20.91;76.07
56719;BME280;42597;40.636;0.278;2022-10-26T04:10:25;97386.50;;;20.89;76.03
56719;BME280;42597;40.636;0.278;2022-10-26T04:12:51;97385.72;;;20.89;76.07
56719;BME280;42597;40.636;0.278;2022-10-26T04:15:17;97389.25;;;20.89;76.15
56719;BME280;42597;40.636;0.278;2022-10-26T04:17:44;97391.59;;;20.91;76.10
56719;BME280;42597;40.636;0.278;2022-10-26T04:20:10;97384.16;;;20.88;76.28
56719;BME280;42597;40.636;0.278;2022-10-26T04:22:36;97392.19;;;20.72;76.38
56719;BME280;42597;40.636;0.278;2022-10-26T04:25:03;97391.28;;;20.82;76.38
56719;BME280;42597;40.636;0.278;2022-10-26T04:27:29;97397.50;;;20.86;76.23
56719;BME280;42597;40.636;0.278;2022-10-26T04:29:54;97402.25;;;20.82;76.58
56719;BME280;42597;40.636;0.278;2022-10-26T04:32:20;97400.69;;;20.84;76.42
56719;BME280;42597;40.636;0.278;2022-10-26T04:34:46;97399.44;;;20.89;76.23
56719;BME280;42597;40.636;0.278;2022-10-26T04:37:11;97403.75;;;20.90;76.20
56719;BME280;42597;40.636;0.278;2022-10-26T04:39:37;97412.47;;;19.66;70.50
56719;BME280;42597;40.636;0.278;2022-10-26T04:42:03;97419.75;;;20.57;77.98
56719;BME280;42597;40.636;0.278;2022-10-26T04:44:29;97412.16;;;20.76;77.06
56719;BME280;42597;40.636;0.278;2022-10-26T04:46:54;97420.31;;;20.83;76.71
56719;BME280;42597;40.636;0.278;2022-10-26T04:49:20;97421.06;;;20.87;76.45
56719;BME280;42597;40.636;0.278;2022-10-26T04:51:45;97432.06;;;20.87;76.46
56719;BME280;42597;40.636;0.278;2022-10-26T04:54:11;97432.06;;;20.87;76.37
56719;BME280;42597;40.636;0.278;2022-10-26T04:56:37;97430.09;;;20.87;76.55
56719;BME280;42597;40.636;0.278;2022-10-26T04:59:02;97433.59;;;20.88;76.82
56719;BME280;42597;40.636;0.278;2022-10-26T05:01:30;97432.81;;;20.87;76.45
56719;BME280;42597;40.636;0.278;2022-10-26T05:03:56;97431.25;;;20.86;76.80
56719;BME280;42597;40.636;0.278;2022-10-26T05:06:21;97435.97;;;20.86;76.71
56719;BME280;42597;40.636;0.278;2022-10-26T05:08:47;97430.88;;;20.88;76.54
56719;BME280;42597;40.636;0.278;2022-10-26T05:11:13;97435.19;;;20.85;76.48
56719;BME280;42597;40.636;0.278;2022-10-26T05:13:39;97440.66;;;20.89;76.41
56719;BME280;42597;40.636;0.278;2022-10-26T05:16:05;97438.34;;;20.84;76.52
56719;BME280;42597;40.636;0.278;2022-10-26T05:18:30;97434.41;;;20.85;76.47
56719;BME280;42597;40.636;0.278;2022-10-26T05:20:56;97438.72;;;20.86;76.18
56719;BME280;42597;40.636;0.278;2022-10-26T05:23:22;97446.94;;;20.86;76.29
56719;BME280;42597;40.636;0.278;2022-10-26T05:25:48;97449.31;;;20.87;76.20
56719;BME280;42597;40.636;0.278;2022-10-26T05:28:14;97441.84;;;20.88;75.93
56719;BME280;42597;40.636;0.278;2022-10-26T05:30:42;97440.72;;;20.82;76.28
56719;BME280;42597;40.636;0.278;2022-10-26T05:33:08;97445.41;;;20.85;76.10
56719;BME280;42597;40.636;0.278;2022-10-26T05:35:35;97446.94;;;20.86;75.95
56719;BME280;42597;40.636;0.278;2022-10-26T05:38:15;97444.22;;;20.82;76.02
56719;BME280;42597;40.636;0.278;2022-10-26T05:40:49;97444.66;;;20.81;76.04
56719;BME280;42597;40.636;0.278;2022-10-26T05:43:15;97456.81;;;20.80;76.24
56719;BME280;42597;40.636;0.278;2022-10-26T05:45:41;97460.69;;;20.86;76.03
56719;BME280;42597;40.636;0.278;2022-10-26T05:48:07;97451.69;;;20.82;76.17
56719;BME280;42597;40.636;0.278;2022-10-26T05:50:33;97465.13;;;20.73;76.51
56719;BME280;42597;40.636;0.278;2022-10-26T05:52:58;97459.56;;;20.80;76.30
56719;BME280;42597;40.636;0.278;2022-10-26T05:55:24;97460.69;;;20.86;75.98
56719;BME280;42597;40.636;0.278;2022-10-26T05:57:50;97460.31;;;20.84;76.22
56719;BME280;42597;40.636;0.278;2022-10-26T06:05:27;97467.34;;;20.29;69.75
56719;BME280;42597;40.636;0.278;2022-10-26T06:07:52;97461.53;;;20.24;77.28
56719;BME280;42597;40.636;0.278;2022-10-26T06:10:19;97462.00;;;20.70;76.90
56719;BME280;42597;40.636;0.278;2022-10-26T06:12:45;97456.81;;;20.80;76.42
56719;BME280;42597;40.636;0.278;2022-10-26T06:15:19;97462.69;;;20.82;76.27
56719;BME280;42597;40.636;0.278;2022-10-26T06:18:02;97465.88;;;20.77;76.41
56719;BME280;42597;40.636;0.278;2022-10-26T06:26:25;97487.66;;;19.58;77.69
56719;BME280;42597;40.636;0.278;2022-10-26T06:31:31;97482.75;;;20.75;76.27
56719;BME280;42597;40.636;0.278;2022-10-26T06:33:58;97501.31;;;19.87;66.00
56719;BME280;42597;40.636;0.278;2022-10-26T06:36:26;97499.88;;;18.68;65.95
56719;BME280;42597;40.636;0.278;2022-10-26T06:39:01;97496.41;;;18.74;61.80
56719;BME280;42597;40.636;0.278;2022-10-26T06:41:30;97493.75;;;20.05;77.95
56719;BME280;42597;40.636;0.278;2022-10-26T06:43:57;97491.56;;;20.52;76.84
56719;BME280;42597;40.636;0.278;2022-10-26T06:46:45;97494.97;;;20.70;76.01
56719;BME280;42597;40.636;0.278;2022-10-26T06:49:31;97491.31;;;20.21;69.12
56719;BME280;42597;40.636;0.278;2022-10-26T06:52:11;97494.28;;;20.56;76.69
56719;BME280;42597;40.636;0.278;2022-10-26T06:54:51;97508.31;;;20.68;76.37
56719;BME280;42597;40.636;0.278;2022-10-26T06:57:20;97504.75;;;20.72;76.00
56719;BME280;42597;40.636;0.278;2022-10-26T06:59:54;97501.63;;;20.69;76.06
56719;BME280;42597;40.636;0.278;2022-10-26T07:02:21;97507.53;;;20.68;76.21
56719;BME280;42597;40.636;0.278;2022-10-26T07:04:47;97513.78;;;20.68;72.78
56719;BME280;42597;40.636;0.278;2022-10-26T07:07:15;97518.22;;;19.67;66.32
56719;BME280;42597;40.636;0.278;2022-10-26T07:09:42;97519.47;;;20.33;77.16
56719;BME280;42597;40.636;0.278;2022-10-26T07:12:08;97511.47;;;20.63;76.34
56719;BME280;42597;40.636;0.278;2022-10-26T07:14:33;97515.31;;;20.73;75.93
56719;BME280;42597;40.636;0.278;2022-10-26T07:16:59;97518.44;;;20.79;75.77
56719;BME280;42597;40.636;0.278;2022-10-26T07:19:25;97523.91;;;20.12;68.99
56719;BME280;42597;40.636;0.278;2022-10-26T07:21:53;97522.22;;;20.33;72.69
56719;BME280;42597;40.636;0.278;2022-10-26T07:24:21;97531.31;;;20.23;72.10
56719;BME280;42597;40.636;0.278;2022-10-26T07:26:47;97532.25;;;20.64;76.19
56719;BME280;42597;40.636;0.278;2022-10-26T07:29:13;97534.97;;;20.72;75.91
56719;BME280;42597;40.636;0.278;2022-10-26T07:31:38;97545.91;;;20.79;75.70
56719;BME280;42597;40.636;0.278;2022-10-26T07:34:04;97541.56;;;20.78;75.73
56719;BME280;42597;40.636;0.278;2022-10-26T07:36:29;97546.03;;;20.57;71.93
56719;BME280;42597;40.636;0.278;2022-10-26T07:38:55;97548.25;;;20.77;75.63
56719;BME280;42597;40.636;0.278;2022-10-26T07:41:21;97550.75;;;20.57;73.94
56719;BME280;42597;40.636;0.278;2022-10-26T07:43:46;97542.91;;;20.55;74.73
56719;BME280;42597;40.636;0.278;2022-10-26T07:49:30;97546.75;;;20.68;72.45
56719;BME280;42597;40.636;0.278;2022-10-26T07:51:55;97553.78;;;20.73;71.09
56719;BME280;42597;40.636;0.278;2022-10-26T07:54:21;97556.25;;;20.50;64.84
56719;BME280;42597;40.636;0.278;2022-10-26T07:56:50;97556.53;;;20.69;75.10
56719;BME280;42597;40.636;0.278;2022-10-26T07:59:16;97552.94;;;20.80;75.11
56719;BME280;42597;40.636;0.278;2022-10-26T08:01:42;97562.38;;;20.79;75.31
56719;BME280;42597;40.636;0.278;2022-10-26T08:04:08;97562.31;;;20.82;75.28
56719;BME280;42597;40.636;0.278;2022-10-26T08:06:34;97565.97;;;20.65;67.47
56719;BME280;42597;40.636;0.278;2022-10-26T08:09:00;97571.78;;;20.78;74.00
56719;BME280;42597;40.636;0.278;2022-10-26T08:11:26;97574.91;;;20.83;74.94
56719;BME280;42597;40.636;0.278;2022-10-26T08:13:52;97574.13;;;20.83;74.76
56719;BME280;42597;40.636;0.278;2022-10-26T08:16:18;97578.84;;;20.79;74.73
56719;BME280;42597;40.636;0.278;2022-10-26T08:18:54;97579.22;;;20.81;74.76
56719;BME280;42597;40.636;0.278;2022-10-26T08:21:20;97584.28;;;20.86;74.69
56719;BME280;42597;40.636;0.278;2022-10-26T08:23:46;97595.34;;;20.75;74.77
56719;BME280;42597;40.636;0.278;2022-10-26T08:26:11;97600.00;;;20.82;74.66
56719;BME280;42597;40.636;0.278;2022-10-26T08:28:38;97606.34;;;20.72;72.19
56719;BME280;42597;40.636;0.278;2022-10-26T08:31:04;97614.16;;;20.77;73.27
56719;BME280;42597;40.636;0.278;2022-10-26T08:33:30;97611.09;;;20.67;73.29
56719;BME280;42597;40.636;0.278;2022-10-26T08:35:58;97615.72;;;20.78;74.48
56719;BME280;42597;40.636;0.278;2022-10-26T08:38:24;97617.31;;;20.79;74.36
56719;BME280;42597;40.636;0.278;2022-10-26T08:40:50;97623.66;;;20.65;70.75
56719;BME280;42597;40.636;0.278;2022-10-26T08:45:56;97622.81;;;20.79;73.91
56719;BME280;42597;40.636;0.278;2022-10-26T08:48:33;97634.91;;;20.85;73.93
56719;BME280;42597;40.636;0.278;2022-10-26T08:51:12;97639.00;;;20.48;54.94
56719;BME280;42597;40.636;0.278;2022-10-26T08:53:41;97635.47;;;20.48;57.24
56719;BME280;42597;40.636;0.278;2022-10-26T08:56:22;97640.16;;;20.54;60.59
56719;BME280;42597;40.636;0.278;2022-10-26T09:01:19;97634.59;;;20.72;61.69
56719;BME280;42597;40.636;0.278;2022-10-26T09:03:45;97640.03;;;20.83;72.36
56719;BME280;42597;40.636;0.278;2022-10-26T09:08:49;97646.97;;;21.02;70.87
56719;BME280;42597;40.636;0.278;2022-10-26T09:14:10;97652.47;;;20.98;59.97
56719;BME280;42597;40.636;0.278;2022-10-26T09:25:48;97647.81;;;20.95;78.76
56719;BME280;42597;40.636;0.278;2022-10-26T09:28:17;97637.59;;;20.99;81.50
56719;BME280;42597;40.636;0.278;2022-10-26T09:30:44;97642.34;;;20.88;74.97
56719;BME280;42597;40.636;0.278;2022-10-26T09:33:11;97649.41;;;20.89;74.33
56719;BME280;42597;40.636;0.278;2022-10-26T09:35:47;97650.84;;;21.11;77.90
56719;BME280;42597;40.636;0.278;2022-10-26T09:38:37;97642.16;;;21.16;81.13
56719;BME280;42597;40.636;0.278;2022-10-26T09:43:42;97647.78;;;20.99;75.30
56719;BME280;42597;40.636;0.278;2022-10-26T09:46:16;97652.06;;;21.07;82.99
56719;BME280;42597;40.636;0.278;2022-10-26T09:48:45;97658.34;;;21.07;83.08
56719;BME280;42597;40.636;0.278;2022-10-26T09:51:15;97647.69;;;21.09;83.06
56719;BME280;42597;40.636;0.278;2022-10-26T09:53:41;97651.31;;;20.99;77.02
56719;BME280;42597;40.636;0.278;2022-10-26T09:56:09;97652.09;;;21.00;75.61
56719;BME280;42597;40.636;0.278;2022-10-26T09:58:40;97658.25;;;21.14;81.72
56719;BME280;42597;40.636;0.278;2022-10-26T10:01:20;97655.63;;;21.00;78.20
56719;BME280;42597;40.636;0.278;2022-10-26T10:03:45;97653.16;;;21.16;84.48
56719;BME280;42597;40.636;0.278;2022-10-26T10:06:20;97660.22;;;21.14;83.16
56719;BME280;42597;40.636;0.278;2022-10-26T10:09:09;97659.59;;;20.92;76.77
56719;BME280;42597;40.636;0.278;2022-10-26T10:11:40;97662.59;;;21.15;84.94
56719;BME280;42597;40.636;0.278;2022-10-26T10:14:12;97664.50;;;21.18;89.00
56719;BME280;42597;40.636;0.278;2022-10-26T10:16:39;97674.47;;;20.98;77.79
56719;BME280;42597;40.636;0.278;2022-10-26T10:19:05;97678.31;;;21.15;94.90
56719;BME280;42597;40.636;0.278;2022-10-26T10:21:48;97675.50;;;21.18;96.38
56719;BME280;42597;40.636;0.278;2022-10-26T10:24:29;97679.94;;;20.98;83.11
56719;BME280;42597;40.636;0.278;2022-10-26T10:29:51;97683.41;;;21.09;99.74
56719;BME280;42597;40.636;0.278;2022-10-26T10:32:29;97676.78;;;21.07;86.33
56719;BME280;42597;40.636;0.278;2022-10-26T10:34:58;97673.16;;;21.20;94.11
56719;BME280;42597;40.636;0.278;2022-10-26T10:37:40;97685.41;;;21.05;87.16
56719;BME280;42597;40.636;0.278;2022-10-26T10:40:18;97680.50;;;21.38;99.57
56719;BME280;42597;40.636;0.278;2022-10-26T10:42:45;97694.66;;;21.36;100.00
56719;BME280;42597;40.636;0.278;2022-10-26T10:45:27;97684.84;;;21.39;99.49
56719;BME280;42597;40.636;0.278;2022-10-26T10:48:13;97693.00;;;21.46;99.67
56719;BME280;42597;40.636;0.278;2022-10-26T10:50:51;97704.19;;;21.17;85.85
56719;BME280;42597;40.636;0.278;2022-10-26T10:53:25;97708.72;;;21.49;99.51
56719;BME280;42597;40.636;0.278;2022-10-26T11:01:25;97707.09;;;21.59;98.15
56719;BME280;42597;40.636;0.278;2022-10-26T11:06:42;97702.78;;;21.51;93.97
56719;BME280;42597;40.636;0.278;2022-10-26T11:09:13;97701.81;;;21.19;80.44
56719;BME280;42597;40.636;0.278;2022-10-26T11:11:47;97712.38;;;21.25;85.99
56719;BME280;42597;40.636;0.278;2022-10-26T11:14:29;97700.78;;;21.58;93.59
56719;BME280;42597;40.636;0.278;2022-10-26T11:17:20;97696.69;;;21.77;94.77
56719;BME280;42597;40.636;0.278;2022-10-26T11:19:54;97699.41;;;21.81;95.51
56719;BME280;42597;40.636;0.278;2022-10-26T11:22:38;97695.47;;;21.82;96.02
56719;BME280;42597;40.636;0.278;2022-10-26T11:25:34;97702.19;;;21.81;95.63
56719;BME280;42597;40.636;0.278;2022-10-26T11:28:02;97696.63;;;21.88;96.50
56719;BME280;42597;40.636;0.278;2022-10-26T11:30:32;97691.88;;;21.92;95.84
56719;BME280;42597;40.636;0.278;2022-10-26T11:36:15;97692.94;;;22.02;94.90
56719;BME280;42597;40.636;0.278;2022-10-26T11:38:49;97681.53;;;22.03;93.93
56719;BME280;42597;40.636;0.278;2022-10-26T11:41:36;97681.13;;;22.05;89.90
56719;BME280;42597;40.636;0.278;2022-10-26T11:47:31;97675.03;;;22.28;88.76
56719;BME280;42597;40.636;0.278;2022-10-26T11:50:12;97678.41;;;22.39;89.21
56719;BME280;42597;40.636;0.278;2022-10-26T11:55:10;97674.13;;;22.34;87.17
56719;BME280;42597;40.636;0.278;2022-10-26T11:57:36;97671.72;;;22.40;87.17
56719;BME280;42597;40.636;0.278;2022-10-26T12:00:06;97669.25;;;22.49;85.67
56719;BME280;42597;40.636;0.278;2022-10-26T12:02:38;97663.28;;;22.54;85.53
56719;BME280;42597;40.636;0.278;2022-10-26T12:05:55;97665.19;;;22.61;85.82
56719;BME280;42597;40.636;0.278;2022-10-26T12:07:59;97666.53;;;22.80;85.23
56719;BME280;42597;40.636;0.278;2022-10-26T12:10:30;97660.94;;;22.83;84.65
56719;BME280;42597;40.636;0.278;2022-10-26T12:13:12;97663.28;;;22.85;86.33
56719;BME280;42597;40.636;0.278;2022-10-26T12:15:48;97659.28;;;22.93;87.09
56719;BME280;42597;40.636;0.278;2022-10-26T12:23:11;97673.78;;;22.97;89.91
56719;BME280;42597;40.636;0.278;2022-10-26T12:25:37;97669.44;;;23.00;90.19
56719;BME280;42597;40.636;0.278;2022-10-26T12:28:03;97673.84;;;23.21;90.22
56719;BME280;42597;40.636;0.278;2022-10-26T12:30:30;97669.34;;;23.30;91.09
56719;BME280;42597;40.636;0.278;2022-10-26T12:33:00;97664.16;;;23.36;92.45
56719;BME280;42597;40.636;0.278;2022-10-26T12:35:42;97668.41;;;23.40;89.54
56719;BME280;42597;40.636;0.278;2022-10-26T12:40:47;97667.41;;;23.27;90.69
56719;BME280;42597;40.636;0.278;2022-10-26T12:45:42;97671.94;;;23.41;88.36
56719;BME280;42597;40.636;0.278;2022-10-26T12:51:50;97659.78;;;23.38;90.31
56719;BME280;42597;40.636;0.278;2022-10-26T12:54:21;97665.56;;;22.94;81.27
56719;BME280;42597;40.636;0.278;2022-10-26T13:00:04;97657.84;;;23.35;89.47
56719;BME280;42597;40.636;0.278;2022-10-26T13:08:03;97650.56;;;23.49;87.96
56719;BME280;42597;40.636;0.278;2022-10-26T13:10:31;97649.91;;;23.41;87.96
56719;BME280;42597;40.636;0.278;2022-10-26T13:12:58;97658.50;;;23.43;86.51
56719;BME280;42597;40.636;0.278;2022-10-26T13:15:27;97655.75;;;23.20;87.35
56719;BME280;42597;40.636;0.278;2022-10-26T13:18:00;97652.88;;;23.50;85.54
56719;BME280;42597;40.636;0.278;2022-10-26T13:20:29;97656.03;;;23.52;84.57
56719;BME280;42597;40.636;0.278;2022-10-26T13:22:55;97653.00;;;23.43;84.27
56719;BME280;42597;40.636;0.278;2022-10-26T13:25:26;97652.28;;;23.39;83.86
56719;BME280;42597;40.636;0.278;2022-10-26T13:28:46;97655.41;;;23.41;83.93
56719;BME280;42597;40.636;0.278;2022-10-26T13:30:46;97658.78;;;23.52;83.46
56719;BME280;42597;40.636;0.278;2022-10-26T13:33:24;97656.03;;;23.52;83.44
56719;BME280;42597;40.636;0.278;2022-10-26T13:35:55;97657.78;;;23.66;83.60
56719;BME280;42597;40.636;0.278;2022-10-26T13:38:25;97658.97;;;23.65;83.03
56719;BME280;42597;40.636;0.278;2022-10-26T13:41:02;97668.28;;;23.75;82.86
56719;BME280;42597;40.636;0.278;2022-10-26T13:43:30;97661.19;;;23.74;83.34
56719;BME280;42597;40.636;0.278;2022-10-26T13:46:02;97661.34;;;23.63;83.52
56719;BME280;42597;40.636;0.278;2022-10-26T13:48:39;97659.75;;;23.66;82.49
56719;BME280;42597;40.636;0.278;2022-10-26T13:51:49;97665.28;;;23.66;82.19
56719;BME280;42597;40.636;0.278;2022-10-26T13:54:27;97664.28;;;23.52;82.33
56719;BME280;42597;40.636;0.278;2022-10-26T13:57:19;97661.72;;;23.65;81.50
56719;BME280;42597;40.636;0.278;2022-10-26T13:59:47;97665.28;;;23.66;81.71
56719;BME280;42597;40.636;0.278;2022-10-26T14:04:50;97666.91;;;23.59;83.18
56719;BME280;42597;40.636;0.278;2022-10-26T14:07:23;97654.81;;;23.53;82.98
56719;BME280;42597;40.636;0.278;2022-10-26T14:09:55;97650.03;;;23.57;83.30
56719;BME280;42597;40.636;0.278;2022-10-26T14:12:23;97644.63;;;23.50;83.27
56719;BME280;42597;40.636;0.278;2022-10-26T14:14:50;97655.53;;;23.57;83.20
56719;BME280;42597;40.636;0.278;2022-10-26T14:17:19;97659.06;;;23.58;82.23
56719;BME280;42597;40.636;0.278;2022-10-26T14:19:47;97661.47;;;23.56;82.66
56719;BME280;42597;40.636;0.278;2022-10-26T14:22:20;97663.25;;;23.70;82.76
56719;BME280;42597;40.636;0.278;2022-10-26T14:24:52;97658.06;;;23.72;82.70
56719;BME280;42597;40.636;0.278;2022-10-26T14:27:20;97657.94;;;23.79;82.45
56719;BME280;42597;40.636;0.278;2022-10-26T14:29:46;97660.00;;;23.75;82.55
56719;BME280;42597;40.636;0.278;2022-10-26T14:32:24;97651.00;;;23.71;82.14
56719;BME280;42597;40.636;0.278;2022-10-26T14:34:51;97656.19;;;23.65;82.60
56719;BME280;42597;40.636;0.278;2022-10-26T14:37:47;97662.25;;;23.56;83.36
56719;BME280;42597;40.636;0.278;2022-10-26T14:40:17;97651.34;;;23.49;85.45
56719;BME280;42597;40.636;0.278;2022-10-26T14:42:46;97653.66;;;23.51;84.68
56719;BME280;42597;40.636;0.278;2022-10-26T14:45:33;97655.56;;;22.42;78.30
56719;BME280;42597;40.636;0.278;2022-10-26T14:48:03;97658.13;;;23.18;85.45
56719;BME280;42597;40.636;0.278;2022-10-26T14:50:30;97654.69;;;23.37;85.92
56719;BME280;42597;40.636;0.278;2022-10-26T14:53:04;97656.47;;;23.24;80.02
56719;BME280;42597;40.636;0.278;2022-10-26T14:55:51;97655.25;;;23.52;84.90
56719;BME280;42597;40.636;0.278;2022-10-26T14:58:25;97664.28;;;23.52;85.27
56719;BME280;42597;40.636;0.278;2022-10-26T15:01:13;97664.75;;;23.47;86.14
56719;BME280;42597;40.636;0.278;2022-10-26T15:03:40;97652.94;;;23.47;86.10
56719;BME280;42597;40.636;0.278;2022-10-26T15:08:58;97654.75;;;23.57;82.04
56719;BME280;42597;40.636;0.278;2022-10-26T15:11:28;97655.25;;;23.52;81.45
56719;BME280;42597;40.636;0.278;2022-10-26T15:13:55;97658.75;;;23.29;76.48
56719;BME280;42597;40.636;0.278;2022-10-26T15:16:26;97665.81;;;23.30;74.44